sensor_id;sensor_type;location;lat;lon;timestamp;P1;durP1;ratioP1;P2;durP2;ratioP2
68910;SDS011;55953;51.650;-0.522;2023-03-21T00:00:58;15.90;;;6.80;;
68910;SDS011;55953;51.650;-0.522;2023-03-21T00:03:27;9.80;;;5.70;;
68910;SDS011;55953;51.650;-0.522;2023-03-21T00:05:55;9.50;;;6.00;;
68910;SDS011;55953;51.650;-0.522;2023-03-21T00:08:25;10.50;;;6.10;;
68910;SDS011;55953;51.650;-0.522;2023-03-21T00:13:27;11.70;;;5.80;;
68910;SDS011;55953;51.650;-0.522;2023-03-21T00:18:41;10.00;;;5.70;;
68910;SDS011;55953;51.650;-0.522;2023-03-21T00:21:16;13.30;;;6.00;;
68910;SDS011;55953;51.650;-0.522;2023-03-21T00:24:05;15.50;;;6.60;;
68910;SDS011;55953;51.650;-0.522;2023-03-21T00:26:34;11.40;;;6.10;;
68910;SDS011;55953;51.650;-0.522;2023-03-21T00:29:02;12.50;;;5.90;;
68910;SDS011;55953;51.650;-0.522;2023-03-21T00:31:30;14.00;;;5.90;;
68910;SDS011;55953;51.650;-0.522;2023-03-21T00:33:59;13.90;;;6.10;;
68910;SDS011;55953;51.650;-0.522;2023-03-21T00:36:30;12.90;;;5.90;;
68910;SDS011;55953;51.650;-0.522;2023-03-21T00:38:58;12.00;;;5.70;;
68910;SDS011;55953;51.650;-0.522;2023-03-21T00:41:27;14.40;;;6.10;;
68910;SDS011;55953;51.650;-0.522;2023-03-21T00:44:12;13.40;;;6.10;;
68910;SDS011;55953;51.650;-0.522;2023-03-21T00:46:42;13.60;;;5.70;;
68910;SDS011;55953;51.650;-0.522;2023-03-21T00:49:33;13.10;;;6.10;;
68910;SDS011;55953;51.650;-0.522;2023-03-21T00:52:05;16.50;;;5.80;;
68910;SDS011;55953;51.650;-0.522;2023-03-21T00:54:46;16.80;;;6.80;;
68910;SDS011;55953;51.650;-0.522;2023-03-21T00:57:14;13.00;;;6.00;;
68910;SDS011;55953;51.650;-0.522;2023-03-21T00:59:43;18.40;;;6.90;;
68910;SDS011;55953;51.650;-0.522;2023-03-21T01:02:11;11.10;;;6.10;;
68910;SDS011;55953;51.650;-0.522;2023-03-21T01:04:41;14.10;;;7.00;;
68910;SDS011;55953;51.650;-0.522;2023-03-21T01:07:10;15.50;;;7.00;;
68910;SDS011;55953;51.650;-0.522;2023-03-21T01:09:38;17.90;;;5.90;;
68910;SDS011;55953;51.650;-0.522;2023-03-21T01:12:06;17.30;;;7.00;;
68910;SDS011;55953;51.650;-0.522;2023-03-21T01:14:36;12.80;;;7.00;;
68910;SDS011;55953;51.650;-0.522;2023-03-21T01:17:05;16.50;;;6.50;;
68910;SDS011;55953;51.650;-0.522;2023-03-21T01:19:33;14.00;;;6.60;;
68910;SDS011;55953;51.650;-0.522;2023-03-21T01:22:17;18.50;;;6.50;;
68910;SDS011;55953;51.650;-0.522;2023-03-21T01:24:45;15.60;;;6.50;;
68910;SDS011;55953;51.650;-0.522;2023-03-21T01:27:24;17.60;;;6.60;;
68910;SDS011;55953;51.650;-0.522;2023-03-21T01:29:52;18.50;;;6.80;;
68910;SDS011;55953;51.650;-0.522;2023-03-21T01:32:20;12.00;;;6.00;;
68910;SDS011;55953;51.650;-0.522;2023-03-21T01:34:48;17.00;;;6.80;;
68910;SDS011;55953;51.650;-0.522;2023-03-21T01:37:17;16.30;;;6.80;;
68910;SDS011;55953;51.650;-0.522;2023-03-21T01:39:48;14.30;;;6.10;;
68910;SDS011;55953;51.650;-0.522;2023-03-21T01:42:17;11.80;;;6.00;;
68910;SDS011;55953;51.650;-0.522;2023-03-21T01:44:54;14.00;;;6.30;;
68910;SDS011;55953;51.650;-0.522;2023-03-21T01:47:25;17.90;;;7.10;;
68910;SDS011;55953;51.650;-0.522;2023-03-21T01:50:06;16.90;;;7.60;;
68910;SDS011;55953;51.650;-0.522;2023-03-21T01:52:40;14.80;;;6.80;;
68910;SDS011;55953;51.650;-0.522;2023-03-21T01:55:13;19.60;;;7.40;;
68910;SDS011;55953;51.650;-0.522;2023-03-21T01:58:07;16.50;;;7.60;;
68910;SDS011;55953;51.650;-0.522;2023-03-21T02:00:48;18.00;;;6.90;;
68910;SDS011;55953;51.650;-0.522;2023-03-21T02:03:27;19.20;;;7.60;;
68910;SDS011;55953;51.650;-0.522;2023-03-21T02:06:23;18.90;;;7.10;;
68910;SDS011;55953;51.650;-0.522;2023-03-21T02:09:07;17.20;;;7.20;;
68910;SDS011;55953;51.650;-0.522;2023-03-21T02:11:37;16.70;;;7.10;;
68910;SDS011;55953;51.650;-0.522;2023-03-21T02:14:14;19.10;;;8.20;;
68910;SDS011;55953;51.650;-0.522;2023-03-21T02:17:07;20.50;;;8.40;;
68910;SDS011;55953;51.650;-0.522;2023-03-21T02:28:30;16.90;;;7.10;;
68910;SDS011;55953;51.650;-0.522;2023-03-21T02:34:06;13.60;;;7.30;;
68910;SDS011;55953;51.650;-0.522;2023-03-21T02:40:09;18.90;;;7.50;;
68910;SDS011;55953;51.650;-0.522;2023-03-21T02:45:40;15.20;;;6.70;;
68910;SDS011;55953;51.650;-0.522;2023-03-21T02:48:19;15.30;;;7.30;;
68910;SDS011;55953;51.650;-0.522;2023-03-21T02:51:04;19.70;;;7.40;;
68910;SDS011;55953;51.650;-0.522;2023-03-21T02:53:37;17.70;;;6.70;;
68910;SDS011;55953;51.650;-0.522;2023-03-21T02:56:08;15.50;;;6.50;;
68910;SDS011;55953;51.650;-0.522;2023-03-21T02:58:41;17.10;;;6.60;;
68910;SDS011;55953;51.650;-0.522;2023-03-21T03:01:10;19.60;;;7.70;;
68910;SDS011;55953;51.650;-0.522;2023-03-21T03:03:43;12.60;;;5.70;;
68910;SDS011;55953;51.650;-0.522;2023-03-21T03:06:36;16.60;;;6.20;;
68910;SDS011;55953;51.650;-0.522;2023-03-21T03:09:23;14.00;;;6.10;;
68910;SDS011;55953;51.650;-0.522;2023-03-21T03:18:18;15.30;;;5.80;;
68910;SDS011;55953;51.650;-0.522;2023-03-21T03:23:54;12.90;;;4.70;;
68910;SDS011;55953;51.650;-0.522;2023-03-21T03:29:07;13.60;;;5.20;;
68910;SDS011;55953;51.650;-0.522;2023-03-21T03:32:05;15.10;;;4.90;;
68910;SDS011;55953;51.650;-0.522;2023-03-21T03:34:41;12.50;;;4.50;;
68910;SDS011;55953;51.650;-0.522;2023-03-21T03:37:14;9.50;;;4.40;;
68910;SDS011;55953;51.650;-0.522;2023-03-21T03:42:48;12.70;;;4.80;;
68910;SDS011;55953;51.650;-0.522;2023-03-21T03:45:34;10.80;;;4.10;;
68910;SDS011;55953;51.650;-0.522;2023-03-21T03:51:03;11.10;;;4.40;;
68910;SDS011;55953;51.650;-0.522;2023-03-21T03:54:12;12.80;;;4.60;;
68910;SDS011;55953;51.650;-0.522;2023-03-21T03:56:44;10.10;;;4.30;;
68910;SDS011;55953;51.650;-0.522;2023-03-21T03:59:15;10.90;;;4.00;;
68910;SDS011;55953;51.650;-0.522;2023-03-21T04:02:08;11.00;;;4.30;;
68910;SDS011;55953;51.650;-0.522;2023-03-21T04:04:36;13.10;;;4.20;;
68910;SDS011;55953;51.650;-0.522;2023-03-21T04:07:05;11.60;;;3.90;;
68910;SDS011;55953;51.650;-0.522;2023-03-21T04:09:34;11.70;;;3.80;;
68910;SDS011;55953;51.650;-0.522;2023-03-21T04:12:12;14.60;;;4.30;;
68910;SDS011;55953;51.650;-0.522;2023-03-21T04:14:41;18.90;;;4.30;;
68910;SDS011;55953;51.650;-0.522;2023-03-21T04:17:14;12.90;;;3.60;;
68910;SDS011;55953;51.650;-0.522;2023-03-21T04:19:42;8.90;;;3.80;;
68910;SDS011;55953;51.650;-0.522;2023-03-21T04:22:12;11.10;;;3.70;;
68910;SDS011;55953;51.650;-0.522;2023-03-21T04:24:42;13.30;;;3.50;;
68910;SDS011;55953;51.650;-0.522;2023-03-21T04:27:12;10.60;;;3.80;;
68910;SDS011;55953;51.650;-0.522;2023-03-21T04:29:43;12.10;;;3.50;;
68910;SDS011;55953;51.650;-0.522;2023-03-21T04:32:30;9.70;;;3.60;;
68910;SDS011;55953;51.650;-0.522;2023-03-21T04:35:08;9.20;;;3.30;;
68910;SDS011;55953;51.650;-0.522;2023-03-21T04:37:37;10.70;;;3.80;;
68910;SDS011;55953;51.650;-0.522;2023-03-21T04:40:06;8.30;;;3.50;;
68910;SDS011;55953;51.650;-0.522;2023-03-21T04:42:35;13.80;;;4.00;;
68910;SDS011;55953;51.650;-0.522;2023-03-21T04:45:03;9.80;;;3.20;;
68910;SDS011;55953;51.650;-0.522;2023-03-21T04:47:32;16.50;;;4.10;;
68910;SDS011;55953;51.650;-0.522;2023-03-21T04:50:00;15.50;;;3.50;;
68910;SDS011;55953;51.650;-0.522;2023-03-21T04:52:28;8.50;;;3.10;;
68910;SDS011;55953;51.650;-0.522;2023-03-21T04:54:56;11.20;;;3.00;;
68910;SDS011;55953;51.650;-0.522;2023-03-21T04:57:24;11.60;;;3.00;;
68910;SDS011;55953;51.650;-0.522;2023-03-21T04:59:52;12.50;;;3.20;;
68910;SDS011;55953;51.650;-0.522;2023-03-21T05:02:21;8.40;;;3.00;;
68910;SDS011;55953;51.650;-0.522;2023-03-21T05:04:49;7.90;;;3.00;;
68910;SDS011;55953;51.650;-0.522;2023-03-21T05:07:17;11.10;;;3.10;;
68910;SDS011;55953;51.650;-0.522;2023-03-21T05:09:45;8.30;;;2.90;;
68910;SDS011;55953;51.650;-0.522;2023-03-21T05:12:13;9.40;;;2.80;;
68910;SDS011;55953;51.650;-0.522;2023-03-21T05:14:41;8.30;;;2.60;;
68910;SDS011;55953;51.650;-0.522;2023-03-21T05:17:09;10.00;;;3.10;;
68910;SDS011;55953;51.650;-0.522;2023-03-21T05:19:40;5.90;;;2.60;;
68910;SDS011;55953;51.650;-0.522;2023-03-21T05:22:10;8.20;;;2.60;;
68910;SDS011;55953;51.650;-0.522;2023-03-21T05:24:38;8.90;;;2.80;;
68910;SDS011;55953;51.650;-0.522;2023-03-21T05:27:10;7.90;;;2.70;;
68910;SDS011;55953;51.650;-0.522;2023-03-21T05:29:43;5.90;;;2.40;;
68910;SDS011;55953;51.650;-0.522;2023-03-21T05:32:11;10.30;;;3.00;;
68910;SDS011;55953;51.650;-0.522;2023-03-21T05:34:39;7.60;;;2.30;;
68910;SDS011;55953;51.650;-0.522;2023-03-21T05:37:07;6.80;;;2.50;;
68910;SDS011;55953;51.650;-0.522;2023-03-21T05:39:41;6.50;;;2.40;;
68910;SDS011;55953;51.650;-0.522;2023-03-21T05:42:14;5.30;;;2.50;;
68910;SDS011;55953;51.650;-0.522;2023-03-21T05:44:43;7.60;;;2.40;;
68910;SDS011;55953;51.650;-0.522;2023-03-21T05:47:13;7.40;;;2.00;;
68910;SDS011;55953;51.650;-0.522;2023-03-21T05:49:45;9.30;;;3.00;;
68910;SDS011;55953;51.650;-0.522;2023-03-21T05:52:14;9.90;;;2.40;;
68910;SDS011;55953;51.650;-0.522;2023-03-21T05:54:44;6.10;;;2.50;;
68910;SDS011;55953;51.650;-0.522;2023-03-21T05:57:12;6.40;;;2.30;;
68910;SDS011;55953;51.650;-0.522;2023-03-21T05:59:56;5.00;;;2.00;;
68910;SDS011;55953;51.650;-0.522;2023-03-21T06:02:24;5.20;;;2.30;;
68910;SDS011;55953;51.650;-0.522;2023-03-21T06:04:52;6.70;;;2.20;;
68910;SDS011;55953;51.650;-0.522;2023-03-21T06:07:21;7.90;;;2.30;;
68910;SDS011;55953;51.650;-0.522;2023-03-21T06:09:49;7.20;;;2.10;;
68910;SDS011;55953;51.650;-0.522;2023-03-21T06:12:17;9.50;;;3.10;;
68910;SDS011;55953;51.650;-0.522;2023-03-21T06:15:08;8.00;;;2.40;;
68910;SDS011;55953;51.650;-0.522;2023-03-21T06:17:51;9.50;;;2.60;;
68910;SDS011;55953;51.650;-0.522;2023-03-21T06:20:20;6.40;;;2.20;;
68910;SDS011;55953;51.650;-0.522;2023-03-21T06:25:19;6.00;;;2.50;;
68910;SDS011;55953;51.650;-0.522;2023-03-21T06:27:48;6.70;;;2.30;;
68910;SDS011;55953;51.650;-0.522;2023-03-21T06:30:17;5.20;;;2.20;;
68910;SDS011;55953;51.650;-0.522;2023-03-21T06:32:55;6.70;;;2.50;;
68910;SDS011;55953;51.650;-0.522;2023-03-21T06:35:23;5.60;;;2.60;;
68910;SDS011;55953;51.650;-0.522;2023-03-21T06:37:51;6.50;;;2.80;;
68910;SDS011;55953;51.650;-0.522;2023-03-21T06:40:20;7.70;;;2.30;;
68910;SDS011;55953;51.650;-0.522;2023-03-21T06:42:48;4.70;;;2.30;;
68910;SDS011;55953;51.650;-0.522;2023-03-21T06:45:15;9.10;;;2.70;;
68910;SDS011;55953;51.650;-0.522;2023-03-21T06:47:44;7.90;;;2.30;;
68910;SDS011;55953;51.650;-0.522;2023-03-21T06:50:22;4.90;;;2.50;;
68910;SDS011;55953;51.650;-0.522;2023-03-21T06:52:50;5.00;;;2.00;;
68910;SDS011;55953;51.650;-0.522;2023-03-21T06:55:18;6.20;;;2.20;;
68910;SDS011;55953;51.650;-0.522;2023-03-21T06:57:53;8.80;;;2.60;;
68910;SDS011;55953;51.650;-0.522;2023-03-21T07:00:22;4.80;;;2.50;;
68910;SDS011;55953;51.650;-0.522;2023-03-21T07:02:51;5.30;;;2.20;;
68910;SDS011;55953;51.650;-0.522;2023-03-21T07:05:22;5.70;;;2.20;;
68910;SDS011;55953;51.650;-0.522;2023-03-21T07:07:50;6.10;;;2.20;;
68910;SDS011;55953;51.650;-0.522;2023-03-21T07:10:18;3.60;;;2.00;;
68910;SDS011;55953;51.650;-0.522;2023-03-21T07:12:51;6.30;;;2.40;;
68910;SDS011;55953;51.650;-0.522;2023-03-21T07:15:21;6.10;;;2.20;;
68910;SDS011;55953;51.650;-0.522;2023-03-21T07:17:49;4.60;;;2.30;;
68910;SDS011;55953;51.650;-0.522;2023-03-21T07:20:17;8.30;;;2.90;;
68910;SDS011;55953;51.650;-0.522;2023-03-21T07:22:45;6.00;;;2.80;;
68910;SDS011;55953;51.650;-0.522;2023-03-21T07:25:13;6.90;;;2.70;;
68910;SDS011;55953;51.650;-0.522;2023-03-21T07:27:43;7.40;;;2.40;;
68910;SDS011;55953;51.650;-0.522;2023-03-21T07:30:13;5.60;;;2.70;;
68910;SDS011;55953;51.650;-0.522;2023-03-21T07:32:42;4.70;;;2.40;;
68910;SDS011;55953;51.650;-0.522;2023-03-21T07:35:14;5.70;;;2.80;;
68910;SDS011;55953;51.650;-0.522;2023-03-21T07:40:14;5.10;;;2.70;;
68910;SDS011;55953;51.650;-0.522;2023-03-21T07:42:42;6.40;;;2.50;;
68910;SDS011;55953;51.650;-0.522;2023-03-21T07:45:11;7.30;;;2.90;;
68910;SDS011;55953;51.650;-0.522;2023-03-21T07:47:47;8.40;;;3.20;;
68910;SDS011;55953;51.650;-0.522;2023-03-21T07:50:16;6.50;;;2.80;;
68910;SDS011;55953;51.650;-0.522;2023-03-21T07:52:44;7.30;;;2.90;;
68910;SDS011;55953;51.650;-0.522;2023-03-21T07:55:12;7.50;;;3.00;;
68910;SDS011;55953;51.650;-0.522;2023-03-21T07:57:40;5.50;;;2.90;;
68910;SDS011;55953;51.650;-0.522;2023-03-21T08:00:08;4.90;;;2.80;;
68910;SDS011;55953;51.650;-0.522;2023-03-21T08:02:41;7.90;;;3.00;;
68910;SDS011;55953;51.650;-0.522;2023-03-21T08:05:09;5.90;;;2.60;;
68910;SDS011;55953;51.650;-0.522;2023-03-21T08:07:38;5.40;;;2.70;;
68910;SDS011;55953;51.650;-0.522;2023-03-21T08:10:06;8.10;;;2.90;;
68910;SDS011;55953;51.650;-0.522;2023-03-21T08:12:35;6.50;;;2.50;;
68910;SDS011;55953;51.650;-0.522;2023-03-21T08:15:03;4.30;;;2.40;;
68910;SDS011;55953;51.650;-0.522;2023-03-21T08:17:31;6.40;;;2.80;;
68910;SDS011;55953;51.650;-0.522;2023-03-21T08:19:59;4.20;;;2.60;;
68910;SDS011;55953;51.650;-0.522;2023-03-21T08:22:27;7.80;;;2.90;;
68910;SDS011;55953;51.650;-0.522;2023-03-21T08:24:54;6.80;;;3.00;;
68910;SDS011;55953;51.650;-0.522;2023-03-21T08:27:22;7.00;;;2.70;;
68910;SDS011;55953;51.650;-0.522;2023-03-21T08:29:50;8.40;;;3.00;;
68910;SDS011;55953;51.650;-0.522;2023-03-21T08:32:18;6.90;;;2.80;;
68910;SDS011;55953;51.650;-0.522;2023-03-21T08:34:46;6.40;;;2.80;;
68910;SDS011;55953;51.650;-0.522;2023-03-21T08:37:14;7.10;;;3.10;;
68910;SDS011;55953;51.650;-0.522;2023-03-21T08:39:42;6.60;;;2.50;;
68910;SDS011;55953;51.650;-0.522;2023-03-21T08:42:10;5.30;;;2.40;;
68910;SDS011;55953;51.650;-0.522;2023-03-21T08:44:37;12.90;;;2.80;;
68910;SDS011;55953;51.650;-0.522;2023-03-21T08:47:06;7.00;;;2.70;;
68910;SDS011;55953;51.650;-0.522;2023-03-21T08:49:35;7.20;;;2.20;;
68910;SDS011;55953;51.650;-0.522;2023-03-21T08:52:03;6.30;;;2.30;;
68910;SDS011;55953;51.650;-0.522;2023-03-21T08:54:32;6.10;;;2.00;;
68910;SDS011;55953;51.650;-0.522;2023-03-21T08:57:00;10.60;;;2.70;;
68910;SDS011;55953;51.650;-0.522;2023-03-21T08:59:28;6.30;;;2.30;;
68910;SDS011;55953;51.650;-0.522;2023-03-21T09:01:56;8.00;;;2.40;;
68910;SDS011;55953;51.650;-0.522;2023-03-21T09:04:24;6.80;;;2.00;;
68910;SDS011;55953;51.650;-0.522;2023-03-21T09:06:57;4.40;;;1.90;;
68910;SDS011;55953;51.650;-0.522;2023-03-21T09:09:27;8.60;;;2.70;;
68910;SDS011;55953;51.650;-0.522;2023-03-21T09:11:55;5.50;;;2.10;;
68910;SDS011;55953;51.650;-0.522;2023-03-21T09:14:23;8.90;;;2.10;;
68910;SDS011;55953;51.650;-0.522;2023-03-21T09:16:55;9.30;;;2.20;;
68910;SDS011;55953;51.650;-0.522;2023-03-21T09:19:23;5.30;;;1.60;;
68910;SDS011;55953;51.650;-0.522;2023-03-21T09:21:52;6.90;;;1.60;;
68910;SDS011;55953;51.650;-0.522;2023-03-21T09:24:22;8.40;;;1.90;;
68910;SDS011;55953;51.650;-0.522;2023-03-21T09:26:50;5.70;;;1.40;;
68910;SDS011;55953;51.650;-0.522;2023-03-21T09:29:18;10.90;;;1.70;;
68910;SDS011;55953;51.650;-0.522;2023-03-21T09:31:47;4.30;;;1.40;;
68910;SDS011;55953;51.650;-0.522;2023-03-21T09:34:16;9.70;;;1.70;;
68910;SDS011;55953;51.650;-0.522;2023-03-21T09:36:44;7.70;;;1.80;;
68910;SDS011;55953;51.650;-0.522;2023-03-21T09:39:15;7.80;;;1.50;;
68910;SDS011;55953;51.650;-0.522;2023-03-21T09:47:46;7.80;;;1.60;;
68910;SDS011;55953;51.650;-0.522;2023-03-21T09:50:29;8.30;;;2.20;;
68910;SDS011;55953;51.650;-0.522;2023-03-21T09:55:43;7.90;;;1.40;;
68910;SDS011;55953;51.650;-0.522;2023-03-21T09:58:27;11.70;;;1.60;;
68910;SDS011;55953;51.650;-0.522;2023-03-21T10:01:09;5.70;;;1.80;;
68910;SDS011;55953;51.650;-0.522;2023-03-21T10:03:48;5.30;;;1.50;;
68910;SDS011;55953;51.650;-0.522;2023-03-21T10:06:17;4.30;;;1.20;;
68910;SDS011;55953;51.650;-0.522;2023-03-21T10:08:46;7.10;;;1.80;;
68910;SDS011;55953;51.650;-0.522;2023-03-21T10:11:25;6.30;;;1.40;;
68910;SDS011;55953;51.650;-0.522;2023-03-21T10:20:19;4.80;;;1.10;;
68910;SDS011;55953;51.650;-0.522;2023-03-21T10:22:52;4.00;;;1.00;;
68910;SDS011;55953;51.650;-0.522;2023-03-21T10:25:32;5.50;;;1.30;;
68910;SDS011;55953;51.650;-0.522;2023-03-21T10:28:03;4.10;;;1.00;;
68910;SDS011;55953;51.650;-0.522;2023-03-21T10:30:40;7.40;;;1.10;;
68910;SDS011;55953;51.650;-0.522;2023-03-21T10:33:25;7.80;;;1.50;;
68910;SDS011;55953;51.650;-0.522;2023-03-21T10:35:59;5.70;;;2.00;;
68910;SDS011;55953;51.650;-0.522;2023-03-21T10:38:32;5.10;;;1.30;;
68910;SDS011;55953;51.650;-0.522;2023-03-21T10:41:01;6.40;;;1.70;;
68910;SDS011;55953;51.650;-0.522;2023-03-21T10:43:32;6.20;;;1.00;;
68910;SDS011;55953;51.650;-0.522;2023-03-21T10:46:11;5.10;;;1.10;;
68910;SDS011;55953;51.650;-0.522;2023-03-21T10:48:50;5.10;;;1.00;;
68910;SDS011;55953;51.650;-0.522;2023-03-21T10:51:21;5.60;;;1.10;;
68910;SDS011;55953;51.650;-0.522;2023-03-21T10:53:56;6.90;;;1.10;;
68910;SDS011;55953;51.650;-0.522;2023-03-21T10:56:29;5.80;;;1.10;;
68910;SDS011;55953;51.650;-0.522;2023-03-21T10:59:03;6.00;;;1.20;;
68910;SDS011;55953;51.650;-0.522;2023-03-21T11:01:36;6.60;;;1.40;;
68910;SDS011;55953;51.650;-0.522;2023-03-21T11:04:17;12.70;;;1.60;;
68910;SDS011;55953;51.650;-0.522;2023-03-21T11:06:55;7.60;;;1.00;;
68910;SDS011;55953;51.650;-0.522;2023-03-21T11:10:11;7.00;;;1.30;;
68910;SDS011;55953;51.650;-0.522;2023-03-21T11:12:47;6.10;;;1.30;;
68910;SDS011;55953;51.650;-0.522;2023-03-21T11:15:55;6.20;;;1.50;;
68910;SDS011;55953;51.650;-0.522;2023-03-21T11:18:27;7.70;;;1.30;;
68910;SDS011;55953;51.650;-0.522;2023-03-21T11:21:05;6.90;;;1.20;;
68910;SDS011;55953;51.650;-0.522;2023-03-21T11:23:40;6.40;;;1.50;;
68910;SDS011;55953;51.650;-0.522;2023-03-21T11:26:24;6.30;;;1.50;;
68910;SDS011;55953;51.650;-0.522;2023-03-21T11:29:16;5.50;;;1.20;;
68910;SDS011;55953;51.650;-0.522;2023-03-21T11:31:50;4.90;;;1.10;;
68910;SDS011;55953;51.650;-0.522;2023-03-21T11:34:33;5.10;;;1.30;;
68910;SDS011;55953;51.650;-0.522;2023-03-21T11:37:42;9.20;;;1.30;;
68910;SDS011;55953;51.650;-0.522;2023-03-21T11:40:26;5.80;;;1.40;;
68910;SDS011;55953;51.650;-0.522;2023-03-21T11:48:43;11.50;;;1.90;;
68910;SDS011;55953;51.650;-0.522;2023-03-21T11:57:06;8.10;;;1.40;;
68910;SDS011;55953;51.650;-0.522;2023-03-21T12:05:33;6.80;;;1.40;;
68910;SDS011;55953;51.650;-0.522;2023-03-21T12:12:21;7.30;;;1.20;;
68910;SDS011;55953;51.650;-0.522;2023-03-21T12:37:30;5.90;;;1.30;;
68910;SDS011;55953;51.650;-0.522;2023-03-21T12:46:41;6.10;;;1.20;;
68910;SDS011;55953;51.650;-0.522;2023-03-21T12:49:30;5.70;;;1.60;;
68910;SDS011;55953;51.650;-0.522;2023-03-21T12:52:09;4.30;;;1.00;;
68910;SDS011;55953;51.650;-0.522;2023-03-21T12:54:49;7.10;;;1.30;;
68910;SDS011;55953;51.650;-0.522;2023-03-21T12:58:00;5.20;;;1.50;;
68910;SDS011;55953;51.650;-0.522;2023-03-21T13:00:56;5.80;;;1.50;;
68910;SDS011;55953;51.650;-0.522;2023-03-21T13:03:56;4.50;;;1.10;;
68910;SDS011;55953;51.650;-0.522;2023-03-21T13:06:27;4.60;;;1.20;;
68910;SDS011;55953;51.650;-0.522;2023-03-21T13:09:08;4.80;;;1.00;;
68910;SDS011;55953;51.650;-0.522;2023-03-21T13:11:47;5.50;;;1.10;;
68910;SDS011;55953;51.650;-0.522;2023-03-21T13:14:29;6.40;;;1.20;;
68910;SDS011;55953;51.650;-0.522;2023-03-21T13:17:26;4.90;;;1.00;;
68910;SDS011;55953;51.650;-0.522;2023-03-21T13:20:09;5.80;;;1.40;;
68910;SDS011;55953;51.650;-0.522;2023-03-21T13:22:49;3.90;;;1.30;;
68910;SDS011;55953;51.650;-0.522;2023-03-21T13:25:21;4.80;;;1.10;;
68910;SDS011;55953;51.650;-0.522;2023-03-21T13:28:03;4.60;;;1.10;;
68910;SDS011;55953;51.650;-0.522;2023-03-21T13:30:32;6.00;;;1.40;;
68910;SDS011;55953;51.650;-0.522;2023-03-21T13:33:06;2.60;;;1.00;;
68910;SDS011;55953;51.650;-0.522;2023-03-21T13:35:41;5.20;;;1.20;;
68910;SDS011;55953;51.650;-0.522;2023-03-21T13:38:20;4.40;;;1.20;;
68910;SDS011;55953;51.650;-0.522;2023-03-21T13:41:18;5.70;;;1.70;;
68910;SDS011;55953;51.650;-0.522;2023-03-21T13:51:50;5.70;;;1.40;;
68910;SDS011;55953;51.650;-0.522;2023-03-21T14:00:21;5.90;;;1.30;;
68910;SDS011;55953;51.650;-0.522;2023-03-21T14:02:52;5.40;;;1.20;;
68910;SDS011;55953;51.650;-0.522;2023-03-21T14:05:48;4.90;;;1.40;;
68910;SDS011;55953;51.650;-0.522;2023-03-21T14:08:19;6.00;;;1.00;;
68910;SDS011;55953;51.650;-0.522;2023-03-21T14:11:07;5.10;;;1.20;;
68910;SDS011;55953;51.650;-0.522;2023-03-21T14:13:41;5.20;;;1.10;;
68910;SDS011;55953;51.650;-0.522;2023-03-21T14:16:18;3.50;;;0.90;;
68910;SDS011;55953;51.650;-0.522;2023-03-21T14:18:55;6.20;;;1.00;;
68910;SDS011;55953;51.650;-0.522;2023-03-21T14:21:29;5.30;;;0.90;;
68910;SDS011;55953;51.650;-0.522;2023-03-21T14:24:06;3.00;;;1.00;;
68910;SDS011;55953;51.650;-0.522;2023-03-21T14:29:31;4.80;;;1.10;;
68910;SDS011;55953;51.650;-0.522;2023-03-21T14:32:02;4.10;;;1.20;;
68910;SDS011;55953;51.650;-0.522;2023-03-21T14:34:34;4.10;;;1.00;;
68910;SDS011;55953;51.650;-0.522;2023-03-21T14:37:06;5.20;;;1.60;;
68910;SDS011;55953;51.650;-0.522;2023-03-21T14:39:37;5.30;;;1.10;;
68910;SDS011;55953;51.650;-0.522;2023-03-21T14:42:09;5.10;;;1.00;;
68910;SDS011;55953;51.650;-0.522;2023-03-21T14:44:41;3.10;;;0.70;;
68910;SDS011;55953;51.650;-0.522;2023-03-21T14:47:27;4.70;;;0.90;;
68910;SDS011;55953;51.650;-0.522;2023-03-21T14:49:57;4.50;;;1.10;;
68910;SDS011;55953;51.650;-0.522;2023-03-21T14:55:02;5.00;;;0.90;;
68910;SDS011;55953;51.650;-0.522;2023-03-21T14:57:38;4.40;;;1.10;;
68910;SDS011;55953;51.650;-0.522;2023-03-21T15:00:07;4.40;;;1.20;;
68910;SDS011;55953;51.650;-0.522;2023-03-21T15:02:40;6.20;;;1.60;;
68910;SDS011;55953;51.650;-0.522;2023-03-21T15:05:34;5.40;;;1.10;;
68910;SDS011;55953;51.650;-0.522;2023-03-21T15:10:40;3.30;;;0.80;;
68910;SDS011;55953;51.650;-0.522;2023-03-21T15:13:18;3.70;;;0.90;;
68910;SDS011;55953;51.650;-0.522;2023-03-21T15:15:49;4.10;;;0.80;;
68910;SDS011;55953;51.650;-0.522;2023-03-21T15:18:29;3.40;;;1.20;;
68910;SDS011;55953;51.650;-0.522;2023-03-21T15:21:03;3.70;;;1.10;;
68910;SDS011;55953;51.650;-0.522;2023-03-21T15:23:39;5.30;;;1.20;;
68910;SDS011;55953;51.650;-0.522;2023-03-21T15:26:14;3.40;;;1.00;;
68910;SDS011;55953;51.650;-0.522;2023-03-21T15:28:48;3.60;;;1.10;;
68910;SDS011;55953;51.650;-0.522;2023-03-21T15:31:20;6.80;;;1.20;;
68910;SDS011;55953;51.650;-0.522;2023-03-21T15:33:52;5.30;;;1.30;;
68910;SDS011;55953;51.650;-0.522;2023-03-21T15:36:45;6.10;;;1.40;;
68910;SDS011;55953;51.650;-0.522;2023-03-21T15:39:16;6.60;;;1.30;;
68910;SDS011;55953;51.650;-0.522;2023-03-21T15:42:19;4.50;;;1.10;;
68910;SDS011;55953;51.650;-0.522;2023-03-21T15:44:51;6.30;;;1.20;;
68910;SDS011;55953;51.650;-0.522;2023-03-21T15:50:57;6.20;;;1.60;;
68910;SDS011;55953;51.650;-0.522;2023-03-21T15:53:34;4.40;;;1.20;;
68910;SDS011;55953;51.650;-0.522;2023-03-21T15:56:04;5.90;;;1.40;;
68910;SDS011;55953;51.650;-0.522;2023-03-21T15:58:40;4.50;;;1.20;;
68910;SDS011;55953;51.650;-0.522;2023-03-21T16:01:16;7.60;;;1.40;;
68910;SDS011;55953;51.650;-0.522;2023-03-21T16:03:53;7.00;;;1.40;;
68910;SDS011;55953;51.650;-0.522;2023-03-21T16:06:29;5.20;;;1.00;;
68910;SDS011;55953;51.650;-0.522;2023-03-21T16:09:12;6.10;;;1.40;;
68910;SDS011;55953;51.650;-0.522;2023-03-21T16:11:52;6.30;;;1.30;;
68910;SDS011;55953;51.650;-0.522;2023-03-21T16:14:23;4.80;;;1.30;;
68910;SDS011;55953;51.650;-0.522;2023-03-21T16:16:55;7.20;;;1.50;;
68910;SDS011;55953;51.650;-0.522;2023-03-21T16:19:23;7.60;;;1.40;;
68910;SDS011;55953;51.650;-0.522;2023-03-21T16:21:54;5.90;;;1.30;;
68910;SDS011;55953;51.650;-0.522;2023-03-21T16:24:22;7.40;;;1.30;;
68910;SDS011;55953;51.650;-0.522;2023-03-21T16:26:50;5.50;;;1.20;;
68910;SDS011;55953;51.650;-0.522;2023-03-21T16:29:18;6.40;;;1.20;;
68910;SDS011;55953;51.650;-0.522;2023-03-21T16:31:47;7.00;;;1.80;;
68910;SDS011;55953;51.650;-0.522;2023-03-21T16:34:15;6.40;;;1.20;;
68910;SDS011;55953;51.650;-0.522;2023-03-21T16:36:43;7.40;;;1.30;;
68910;SDS011;55953;51.650;-0.522;2023-03-21T16:39:19;6.00;;;1.30;;
68910;SDS011;55953;51.650;-0.522;2023-03-21T16:41:48;6.90;;;1.20;;
68910;SDS011;55953;51.650;-0.522;2023-03-21T16:44:18;5.00;;;1.30;;
68910;SDS011;55953;51.650;-0.522;2023-03-21T16:46:47;5.50;;;1.10;;
68910;SDS011;55953;51.650;-0.522;2023-03-21T16:49:27;6.20;;;1.40;;
68910;SDS011;55953;51.650;-0.522;2023-03-21T16:51:55;7.30;;;1.40;;
68910;SDS011;55953;51.650;-0.522;2023-03-21T16:54:23;5.20;;;1.00;;
68910;SDS011;55953;51.650;-0.522;2023-03-21T16:56:53;5.30;;;1.30;;
68910;SDS011;55953;51.650;-0.522;2023-03-21T16:59:22;8.20;;;1.50;;
68910;SDS011;55953;51.650;-0.522;2023-03-21T17:01:50;8.60;;;1.70;;
68910;SDS011;55953;51.650;-0.522;2023-03-21T17:04:18;7.90;;;1.10;;
68910;SDS011;55953;51.650;-0.522;2023-03-21T17:06:49;6.50;;;1.10;;
68910;SDS011;55953;51.650;-0.522;2023-03-21T17:09:22;10.50;;;1.30;;
68910;SDS011;55953;51.650;-0.522;2023-03-21T17:11:53;8.90;;;1.20;;
68910;SDS011;55953;51.650;-0.522;2023-03-21T17:14:22;8.20;;;1.20;;
68910;SDS011;55953;51.650;-0.522;2023-03-21T17:16:49;8.60;;;1.10;;
68910;SDS011;55953;51.650;-0.522;2023-03-21T17:19:20;7.50;;;1.20;;
68910;SDS011;55953;51.650;-0.522;2023-03-21T17:21:50;7.10;;;1.60;;
68910;SDS011;55953;51.650;-0.522;2023-03-21T17:24:18;8.40;;;1.40;;
68910;SDS011;55953;51.650;-0.522;2023-03-21T17:26:46;8.80;;;1.10;;